createdAt,value
2023-02-11T00:00:05.057Z,55.70
2023-02-11T00:01:05.153Z,56.30
2023-02-11T00:02:05.034Z,51.60
2023-02-11T00:03:05.076Z,49.70
2023-02-11T00:04:05.062Z,51.50
2023-02-11T00:05:05.008Z,55.40
2023-02-11T00:06:04.973Z,50.90
2023-02-11T00:07:05.065Z,53.40
2023-02-11T00:08:04.966Z,52.90
2023-02-11T00:09:04.956Z,54.10
2023-02-11T00:10:06.262Z,53.90
2023-02-11T00:11:04.905Z,51.70
2023-02-11T00:12:04.903Z,50.70
2023-02-11T00:13:05.241Z,55.20
2023-02-11T00:14:04.918Z,51.00
2023-02-11T00:15:04.894Z,50.50
2023-02-11T00:16:04.873Z,51.00
2023-02-11T00:17:04.946Z,51.40
2023-02-11T00:18:04.812Z,49.10
2023-02-11T00:19:04.953Z,48.40
2023-02-11T00:20:07.865Z,49.30
2023-02-11T00:21:04.773Z,50.10
2023-02-11T00:22:04.791Z,50.40
2023-02-11T00:23:04.804Z,50.20
2023-02-11T00:24:04.736Z,51.80
2023-02-11T00:25:04.764Z,52.90
2023-02-11T00:26:04.841Z,50.10
2023-02-11T00:27:04.756Z,53.20
2023-02-11T00:28:04.747Z,51.60
2023-02-11T00:29:04.703Z,49.00
2023-02-11T00:30:04.691Z,50.60
2023-02-11T00:31:04.797Z,52.30
2023-02-11T00:32:25.691Z,52.80
2023-02-11T00:33:05.620Z,51.50
2023-02-11T00:34:04.601Z,49.00
2023-02-11T00:35:04.638Z,50.40
2023-02-11T00:36:04.587Z,50.30
2023-02-11T00:37:04.599Z,47.10
2023-02-11T00:38:04.678Z,49.30
2023-02-11T00:39:04.571Z,50.70
2023-02-11T00:40:06.712Z,50.20
2023-02-11T00:41:04.711Z,50.70
2023-02-11T00:42:04.542Z,51.00
2023-02-11T00:43:04.554Z,48.50
2023-02-11T00:44:04.606Z,47.70
2023-02-11T00:45:04.448Z,48.30
2023-02-11T00:46:04.473Z,48.00
2023-02-11T00:47:04.630Z,49.70
2023-02-11T00:48:04.445Z,49.20
2023-02-11T00:49:04.469Z,55.70
2023-02-11T00:50:20.543Z,51.50
2023-02-11T00:51:05.439Z,51.20
2023-02-11T00:52:04.371Z,48.80
2023-02-11T00:53:04.362Z,52.20
2023-02-11T00:54:04.401Z,51.10
2023-02-11T00:55:26.943Z,53.10
2023-02-11T00:56:05.367Z,49.50
2023-02-11T00:57:04.362Z,48.40
2023-02-11T00:58:04.371Z,44.60
2023-02-11T00:59:04.273Z,49.80
2023-02-11T01:00:04.248Z,49.90
2023-02-11T01:01:04.322Z,50.90
2023-02-11T01:02:04.252Z,49.90
2023-02-11T01:03:04.272Z,47.30
2023-02-11T01:04:04.252Z,48.50
2023-02-11T01:05:04.215Z,49.10
2023-02-11T01:06:04.234Z,45.30
2023-02-11T01:07:04.274Z,49.30
2023-02-11T01:08:04.176Z,49.50
2023-02-11T01:09:04.232Z,47.30
2023-02-11T01:10:04.196Z,48.00
2023-02-11T01:11:04.148Z,48.40
2023-02-11T01:12:04.145Z,47.80
2023-02-11T01:13:04.115Z,48.80
2023-02-11T01:14:04.321Z,47.70
2023-02-11T01:15:04.086Z,45.60
2023-02-11T01:16:04.175Z,46.90
2023-02-11T01:17:04.108Z,46.80
2023-02-11T01:18:04.107Z,48.30
2023-02-11T01:19:04.027Z,48.90
2023-02-11T01:20:04.036Z,45.10
2023-02-11T01:21:04.236Z,46.90
2023-02-11T01:22:03.996Z,48.50
2023-02-11T01:23:04.013Z,46.60
2023-02-11T01:24:04.017Z,49.20
2023-02-11T01:25:03.958Z,45.70
2023-02-11T01:26:04.030Z,49.30
2023-02-11T01:27:04.033Z,48.00
2023-02-11T01:28:03.964Z,45.90
2023-02-11T01:29:03.960Z,48.50
2023-02-11T01:30:03.994Z,45.60
2023-02-11T01:31:03.942Z,44.40
2023-02-11T01:32:03.918Z,46.60
2023-02-11T01:33:04.036Z,45.90
2023-02-11T01:34:03.922Z,47.10
2023-02-11T01:35:03.890Z,46.90
2023-02-11T01:36:03.814Z,48.00
2023-02-11T01:37:03.884Z,45.30
2023-02-11T01:38:03.799Z,45.10
2023-02-11T01:39:03.780Z,45.90
2023-02-11T01:40:05.638Z,44.40
2023-02-11T01:41:03.747Z,43.00
2023-02-11T01:42:03.739Z,45.90
2023-02-11T01:43:03.701Z,43.40
2023-02-11T01:44:03.711Z,45.20
2023-02-11T01:45:03.709Z,47.20
2023-02-11T01:46:03.780Z,43.00
2023-02-11T01:47:03.724Z,43.70
2023-02-11T01:48:03.627Z,44.90
2023-02-11T01:49:03.728Z,42.20
2023-02-11T01:50:03.641Z,43.50
2023-02-11T01:51:03.632Z,45.00
2023-02-11T01:52:03.644Z,41.80
2023-02-11T01:53:03.622Z,44.10
2023-02-11T01:54:03.591Z,47.80
2023-02-11T01:55:03.654Z,41.50
2023-02-11T01:56:03.593Z,43.10
2023-02-11T01:57:03.722Z,44.00
2023-02-11T01:58:03.576Z,45.70
2023-02-11T01:59:03.625Z,47.60
2023-02-11T02:00:03.480Z,44.20
2023-02-11T02:01:03.577Z,42.30
2023-02-11T02:02:03.448Z,45.10
2023-02-11T02:03:03.536Z,45.00
2023-02-11T02:04:03.539Z,45.90
2023-02-11T02:05:03.454Z,46.50
2023-02-11T02:06:03.614Z,43.10
2023-02-11T02:07:03.404Z,43.00
2023-02-11T02:08:03.386Z,40.40
2023-02-11T02:09:03.521Z,44.10
2023-02-11T02:10:03.417Z,41.70
2023-02-11T02:11:03.411Z,44.90
2023-02-11T02:12:03.420Z,43.10
2023-02-11T02:13:03.304Z,46.20
2023-02-11T02:14:03.423Z,43.50
2023-02-11T02:15:03.323Z,43.30
2023-02-11T02:16:03.485Z,42.90
2023-02-11T02:17:03.321Z,41.30
2023-02-11T02:18:03.277Z,42.20
2023-02-11T02:19:03.386Z,41.50
2023-02-11T02:20:03.220Z,42.30
2023-02-11T02:21:03.224Z,41.60
2023-02-11T02:22:03.243Z,41.70
2023-02-11T02:23:03.260Z,40.30
2023-02-11T02:24:03.255Z,40.90
2023-02-11T02:25:03.192Z,40.40
2023-02-11T02:26:03.250Z,44.20
2023-02-11T02:27:03.177Z,39.00
2023-02-11T02:28:03.184Z,41.30
2023-02-11T02:29:03.166Z,38.80
2023-02-11T02:30:03.103Z,42.20
2023-02-11T02:31:03.274Z,41.40
2023-02-11T02:32:03.107Z,40.70
2023-02-11T02:33:16.664Z,41.50
2023-02-11T02:34:04.100Z,42.90
2023-02-11T02:35:03.113Z,39.90
2023-02-11T02:36:03.045Z,43.40
2023-02-11T02:37:02.995Z,39.30
2023-02-11T02:38:03.060Z,38.90
2023-02-11T02:39:03.038Z,37.60
2023-02-11T02:40:03.056Z,36.90
2023-02-11T02:41:02.949Z,40.00
2023-02-11T02:42:02.975Z,41.70
2023-02-11T02:43:02.925Z,39.10
2023-02-11T02:44:02.941Z,38.80
2023-02-11T02:45:03.060Z,39.60
2023-02-11T02:46:02.889Z,38.20
2023-02-11T02:47:02.956Z,36.90
2023-02-11T02:48:03.028Z,40.70
2023-02-11T02:49:02.870Z,38.10
2023-02-11T02:50:02.832Z,40.20
2023-02-11T02:51:24.496Z,38.90
2023-02-11T02:52:02.823Z,41.70
2023-02-11T02:53:02.813Z,41.10
2023-02-11T02:54:02.904Z,38.80
2023-02-11T02:55:02.753Z,43.20
2023-02-11T02:56:02.746Z,39.40
2023-02-11T02:57:02.758Z,38.80
2023-02-11T02:58:02.796Z,37.30
2023-02-11T02:59:02.771Z,38.60
2023-02-11T03:00:02.698Z,39.40
2023-02-11T03:01:02.791Z,38.70
2023-02-11T03:02:02.655Z,39.10
2023-02-11T03:03:02.638Z,40.00
2023-02-11T03:04:02.764Z,37.70
2023-02-11T03:05:02.661Z,38.00
2023-02-11T03:06:02.606Z,39.30
2023-02-11T03:07:02.661Z,40.90
2023-02-11T03:08:02.586Z,37.10
2023-02-11T03:09:02.594Z,40.80
2023-02-11T03:10:02.579Z,39.70
2023-02-11T03:11:02.570Z,38.50
2023-02-11T03:12:02.528Z,38.30
2023-02-11T03:13:02.535Z,39.20
2023-02-11T03:14:02.572Z,38.80
2023-02-11T03:15:02.523Z,40.10
2023-02-11T03:16:02.486Z,39.40
2023-02-11T03:17:02.445Z,36.30
2023-02-11T03:18:02.486Z,37.60
2023-02-11T03:19:02.446Z,40.60
2023-02-11T03:20:02.432Z,36.90
2023-02-11T03:21:02.443Z,37.50
2023-02-11T03:22:02.434Z,40.20
2023-02-11T03:23:02.373Z,37.70
2023-02-11T03:24:02.374Z,36.30
2023-02-11T03:25:02.374Z,38.80
2023-02-11T03:26:02.335Z,38.80
2023-02-11T03:27:02.994Z,37.70
2023-02-11T03:28:02.346Z,36.30
2023-02-11T03:29:02.326Z,39.60
2023-02-11T03:30:02.329Z,39.20
2023-02-11T03:31:02.355Z,38.60
2023-02-11T03:32:02.363Z,39.30
2023-02-11T03:33:02.291Z,38.10
2023-02-11T03:34:02.271Z,35.20
2023-02-11T03:35:02.253Z,36.80
2023-02-11T03:36:02.218Z,38.10
2023-02-11T03:37:02.218Z,42.10
2023-02-11T03:38:02.166Z,40.30
2023-02-11T03:39:02.192Z,41.90
2023-02-11T03:40:02.141Z,35.80
2023-02-11T03:41:02.155Z,38.10
2023-02-11T03:42:02.139Z,36.50
2023-02-11T03:43:02.111Z,38.30
2023-02-11T03:44:02.122Z,36.70
2023-02-11T03:45:02.122Z,40.90
2023-02-11T03:46:02.173Z,39.70
2023-02-11T03:47:02.136Z,39.70
2023-02-11T03:48:02.063Z,38.40
2023-02-11T03:49:02.059Z,39.80
2023-02-11T03:50:02.057Z,38.40
2023-02-11T03:51:02.106Z,38.20
2023-02-11T03:52:01.993Z,38.20
2023-02-11T03:53:02.030Z,37.60
2023-02-11T03:54:01.982Z,38.30
2023-02-11T03:55:01.977Z,38.70
2023-02-11T03:56:01.990Z,38.70
2023-02-11T03:57:01.986Z,36.40
2023-02-11T03:58:01.951Z,37.90
2023-02-11T03:59:01.888Z,36.90
2023-02-11T04:00:01.899Z,41.20
2023-02-11T04:01:01.913Z,37.10
2023-02-11T04:02:01.862Z,37.80
2023-02-11T04:03:01.941Z,37.90
2023-02-11T04:04:01.870Z,37.60
2023-02-11T04:05:01.820Z,39.00
2023-02-11T04:06:01.845Z,39.70
2023-02-11T04:07:01.797Z,36.60
2023-02-11T04:08:01.799Z,39.40
2023-02-11T04:09:01.813Z,38.80
2023-02-11T04:10:01.818Z,36.40
2023-02-11T04:11:01.803Z,35.30
2023-02-11T04:12:01.802Z,37.80
2023-02-11T04:13:01.767Z,38.20
2023-02-11T04:14:01.705Z,37.20
2023-02-11T04:15:01.741Z,39.50
2023-02-11T04:16:01.790Z,38.40
2023-02-11T04:17:01.657Z,39.00
2023-02-11T04:18:01.738Z,33.70
2023-02-11T04:19:01.653Z,38.80
2023-02-11T04:20:01.681Z,35.90
2023-02-11T04:21:01.674Z,36.80
2023-02-11T04:22:01.616Z,37.80
2023-02-11T04:23:01.595Z,36.30
2023-02-11T04:24:01.599Z,38.10
2023-02-11T04:25:01.638Z,36.90
2023-02-11T04:26:01.546Z,38.20
2023-02-11T04:27:01.585Z,36.10
2023-02-11T04:28:01.659Z,36.00
2023-02-11T04:29:01.543Z,37.00
2023-02-11T04:30:01.702Z,38.70
2023-02-11T04:31:01.659Z,35.00
2023-02-11T04:32:01.575Z,35.60
2023-02-11T04:33:01.544Z,37.20
2023-02-11T04:34:01.487Z,37.50
2023-02-11T04:35:01.535Z,33.00
2023-02-11T04:36:01.537Z,33.00
2023-02-11T04:37:01.437Z,33.90
2023-02-11T04:38:01.395Z,35.50
2023-02-11T04:39:01.464Z,34.90
2023-02-11T04:40:01.441Z,34.60
2023-02-11T04:41:01.363Z,35.20
2023-02-11T04:42:01.389Z,34.90
2023-02-11T04:43:01.326Z,33.60
2023-02-11T04:44:01.337Z,36.20
2023-02-11T04:45:01.358Z,34.10
2023-02-11T04:46:01.364Z,33.80
2023-02-11T04:47:01.290Z,34.10
2023-02-11T04:48:01.288Z,34.90
2023-02-11T04:49:01.248Z,32.80
2023-02-11T04:50:01.291Z,35.10
2023-02-11T04:51:01.256Z,32.00
2023-02-11T04:52:01.242Z,34.10
2023-02-11T04:53:01.205Z,33.60
2023-02-11T04:54:01.210Z,34.80
2023-02-11T04:55:01.213Z,32.30
2023-02-11T04:56:01.163Z,33.10
2023-02-11T04:57:01.172Z,34.20
2023-02-11T04:58:01.230Z,32.60
2023-02-11T04:59:01.268Z,32.90
2023-02-11T05:00:01.138Z,33.50
2023-02-11T05:01:01.171Z,39.10
2023-02-11T05:02:01.116Z,33.20
2023-02-11T05:03:01.122Z,31.70
2023-02-11T05:04:01.228Z,32.40
2023-02-11T05:05:01.055Z,29.20
2023-02-11T05:06:01.621Z,30.00
2023-02-11T05:07:01.116Z,31.00
2023-02-11T05:08:01.023Z,30.80
2023-02-11T05:09:01.040Z,29.60
2023-02-11T05:10:01.068Z,32.90
2023-02-11T05:11:01.104Z,32.00
2023-02-11T05:12:01.031Z,29.70
2023-02-11T05:13:00.952Z,29.20
2023-02-11T05:14:01.160Z,30.50
2023-02-11T05:15:00.951Z,29.30
2023-02-11T05:16:00.956Z,29.40
2023-02-11T05:17:01.125Z,28.80
2023-02-11T05:18:00.869Z,28.10
2023-02-11T05:19:00.871Z,27.60
2023-02-11T05:20:11.832Z,29.00
2023-02-11T05:21:01.954Z,29.20
2023-02-11T05:22:03.356Z,27.60
2023-02-11T05:23:00.852Z,29.50
2023-02-11T05:24:00.865Z,28.50
2023-02-11T05:25:00.828Z,29.20
2023-02-11T05:26:01.083Z,27.10
2023-02-11T05:27:00.996Z,29.30
2023-02-11T05:28:00.904Z,28.30
2023-02-11T05:29:00.739Z,26.90
2023-02-11T05:30:00.800Z,27.70
2023-02-11T05:31:00.805Z,27.90
2023-02-11T05:32:00.724Z,27.20
2023-02-11T05:33:00.883Z,28.80
2023-02-11T05:34:00.823Z,26.80
2023-02-11T05:35:05.549Z,31.20
2023-02-11T05:36:00.624Z,28.00
2023-02-11T05:37:00.730Z,31.70
2023-02-11T05:38:00.653Z,33.30
2023-02-11T05:39:00.738Z,28.90
2023-02-11T05:40:00.657Z,30.10
2023-02-11T05:41:00.660Z,32.70
2023-02-11T05:42:00.637Z,31.80
2023-02-11T05:43:00.790Z,34.40
2023-02-11T05:44:33.003Z,32.20
2023-02-11T05:45:01.618Z,31.60
2023-02-11T05:46:00.558Z,32.70
2023-02-11T05:47:00.555Z,30.40
2023-02-11T05:48:00.486Z,31.10
2023-02-11T05:49:00.602Z,30.90
2023-02-11T05:50:00.445Z,34.30
2023-02-11T05:51:00.483Z,29.70
2023-02-11T05:52:00.500Z,31.20
2023-02-11T05:53:00.451Z,31.60
2023-02-11T05:54:00.426Z,29.00
2023-02-11T05:55:00.488Z,29.00
2023-02-11T05:56:00.392Z,31.60
2023-02-11T05:57:00.348Z,31.10
2023-02-11T05:58:00.460Z,30.20
2023-02-11T05:59:00.380Z,30.30
2023-02-11T06:00:00.338Z,30.80
2023-02-11T06:01:00.303Z,29.70
2023-02-11T06:02:00.425Z,33.10
2023-02-11T06:03:00.362Z,30.30
2023-02-11T06:04:00.351Z,27.90
2023-02-11T06:05:00.480Z,28.30
2023-02-11T06:06:00.413Z,31.40
2023-02-11T06:07:00.206Z,30.00
2023-02-11T06:08:00.218Z,27.60
2023-02-11T06:09:00.313Z,29.80
2023-02-11T06:10:00.204Z,28.40
2023-02-11T06:11:00.208Z,29.30
2023-02-11T06:12:00.342Z,29.30
2023-02-11T06:13:00.158Z,29.50
2023-02-11T06:14:00.170Z,29.30
2023-02-11T06:15:00.285Z,31.60
2023-02-11T06:16:00.212Z,30.00
2023-02-11T06:17:00.141Z,28.70
2023-02-11T06:18:00.264Z,31.80
2023-02-11T06:19:00.092Z,28.60
2023-02-11T06:20:00.063Z,26.90
2023-02-11T06:21:00.049Z,28.50
2023-02-11T06:22:00.113Z,30.50
2023-02-11T06:23:00.060Z,29.00
2023-02-11T06:24:00.073Z,26.50
2023-02-11T06:25:02.079Z,28.60
2023-02-11T06:26:00.021Z,29.00
2023-02-11T06:27:00.020Z,28.30
2023-02-11T06:27:59.995Z,30.70
2023-02-11T06:28:59.974Z,30.20
2023-02-11T06:29:59.995Z,28.10
2023-02-11T06:31:00.093Z,30.60
2023-02-11T06:32:00.122Z,26.90
2023-02-11T06:32:59.897Z,28.10
2023-02-11T06:33:59.900Z,30.50
2023-02-11T06:34:59.897Z,28.40
2023-02-11T06:35:59.909Z,29.70
2023-02-11T06:36:59.829Z,32.10
2023-02-11T06:37:59.880Z,31.20
2023-02-11T06:38:59.817Z,32.70
2023-02-11T06:39:59.797Z,29.40
2023-02-11T06:40:59.918Z,29.50
2023-02-11T06:41:59.815Z,29.70
2023-02-11T06:42:59.766Z,30.10
2023-02-11T06:43:59.752Z,29.50
2023-02-11T06:44:59.772Z,30.30
2023-02-11T06:45:59.789Z,29.10
2023-02-11T06:46:59.708Z,30.30
2023-02-11T06:47:59.819Z,27.80
2023-02-11T06:48:59.686Z,28.60
2023-02-11T06:49:59.684Z,26.30
2023-02-11T06:50:59.688Z,29.40
2023-02-11T06:51:59.680Z,27.00
2023-02-11T06:52:59.674Z,30.10
2023-02-11T06:53:59.708Z,27.20
2023-02-11T06:54:59.577Z,26.20
2023-02-11T06:55:59.610Z,27.60
2023-02-11T06:56:59.616Z,28.30
2023-02-11T06:57:59.598Z,27.80
2023-02-11T06:58:59.546Z,30.40
2023-02-11T06:59:59.638Z,31.80
2023-02-11T07:00:59.537Z,27.40
2023-02-11T07:01:59.549Z,28.10
2023-02-11T07:02:59.641Z,28.30
2023-02-11T07:03:59.485Z,28.50
2023-02-11T07:04:59.480Z,28.30
2023-02-11T07:05:59.527Z,31.40
2023-02-11T07:06:59.505Z,27.70
2023-02-11T07:07:59.484Z,29.20
2023-02-11T07:08:59.458Z,26.80
2023-02-11T07:09:59.452Z,26.60
2023-02-11T07:10:59.377Z,29.30
2023-02-11T07:11:59.415Z,26.00
2023-02-11T07:12:59.418Z,27.20
2023-02-11T07:13:59.343Z,26.20
2023-02-11T07:14:59.318Z,27.30
2023-02-11T07:15:59.454Z,26.50
2023-02-11T07:16:59.326Z,26.60
2023-02-11T07:17:59.356Z,31.50
2023-02-11T07:18:59.364Z,27.10
2023-02-11T07:19:59.289Z,26.50
2023-02-11T07:20:59.272Z,27.00
2023-02-11T07:21:59.267Z,27.20
2023-02-11T07:22:59.224Z,27.90
2023-02-11T07:23:59.194Z,26.10
2023-02-11T07:24:59.236Z,25.40
2023-02-11T07:25:59.213Z,25.10
2023-02-11T07:26:59.164Z,25.30
2023-02-11T07:27:59.200Z,25.50
2023-02-11T07:28:59.203Z,25.00
2023-02-11T07:29:59.194Z,25.30
2023-02-11T07:30:59.193Z,26.40
2023-02-11T07:31:59.282Z,26.40
2023-02-11T07:32:59.114Z,27.20
2023-02-11T07:33:59.082Z,25.70
2023-02-11T07:34:59.090Z,24.80
2023-02-11T07:35:59.033Z,24.60
2023-02-11T07:36:59.055Z,24.60
2023-02-11T07:37:59.043Z,25.10
2023-02-11T07:38:59.016Z,27.20
2023-02-11T07:39:59.004Z,25.30
2023-02-11T07:40:59.164Z,25.10
2023-02-11T07:41:58.989Z,26.20
2023-02-11T07:42:59.002Z,24.70
2023-02-11T07:43:58.943Z,26.90
2023-02-11T07:44:59.032Z,26.30
2023-02-11T07:45:58.915Z,24.20
2023-02-11T07:46:58.993Z,26.20
2023-02-11T07:47:59.021Z,23.50
2023-02-11T07:48:58.901Z,24.60
2023-02-11T07:49:58.878Z,27.00
2023-02-11T07:50:58.948Z,25.20
2023-02-11T07:51:58.849Z,26.10
2023-02-11T07:52:58.832Z,22.90
2023-02-11T07:53:58.859Z,24.70
2023-02-11T07:54:58.850Z,26.20
2023-02-11T07:55:58.772Z,25.80
2023-02-11T07:56:58.772Z,26.70
2023-02-11T07:57:58.805Z,27.20
2023-02-11T07:58:58.736Z,25.30
2023-02-11T07:59:58.767Z,24.70
2023-02-11T08:00:58.810Z,26.50
2023-02-11T08:01:58.806Z,25.90
2023-02-11T08:02:58.736Z,23.40
2023-02-11T08:03:58.806Z,24.00
2023-02-11T08:04:58.698Z,27.20
2023-02-11T08:05:58.642Z,26.10
2023-02-11T08:06:59.211Z,24.80
2023-02-11T08:07:58.763Z,20.60
2023-02-11T08:08:58.598Z,24.10
2023-02-11T08:09:58.576Z,24.10
2023-02-11T08:10:58.577Z,23.50
2023-02-11T08:11:58.724Z,23.70
2023-02-11T08:12:58.567Z,23.60
2023-02-11T08:13:58.695Z,22.60
2023-02-11T08:14:58.572Z,23.00
2023-02-11T08:15:58.503Z,21.80
2023-02-11T08:16:58.485Z,22.00
2023-02-11T08:17:58.472Z,22.90
2023-02-11T08:18:58.545Z,22.10
2023-02-11T08:19:58.464Z,22.30
2023-02-11T08:20:58.450Z,22.30
2023-02-11T08:21:58.426Z,22.10
2023-02-11T08:22:58.464Z,21.60
2023-02-11T08:23:58.463Z,22.10
2023-02-11T08:24:58.380Z,20.90
2023-02-11T08:25:58.380Z,24.50
2023-02-11T08:26:58.409Z,26.60
2023-02-11T08:27:58.377Z,23.50
2023-02-11T08:28:58.319Z,21.50
2023-02-11T08:29:58.331Z,22.80
2023-02-11T08:30:58.342Z,25.10
2023-02-11T08:31:58.363Z,21.70
2023-02-11T08:32:58.295Z,21.30
2023-02-11T08:33:58.335Z,24.20
2023-02-11T08:34:58.240Z,21.70
2023-02-11T08:35:58.232Z,19.40
2023-02-11T08:36:58.290Z,23.90
2023-02-11T08:37:58.238Z,22.30
2023-02-11T08:39:12.179Z,20.80
2023-02-11T08:39:59.189Z,21.40
2023-02-11T08:40:58.159Z,19.90
2023-02-11T08:41:58.160Z,19.90
2023-02-11T08:42:58.228Z,19.70
2023-02-11T08:43:58.157Z,20.70
2023-02-11T08:44:58.120Z,19.30
2023-02-11T08:46:00.147Z,20.70
2023-02-11T08:46:58.108Z,20.10
2023-02-11T08:47:58.077Z,19.50
2023-02-11T08:48:58.065Z,20.30
2023-02-11T08:49:58.109Z,19.20
2023-02-11T08:50:58.054Z,19.50
2023-02-11T08:51:58.028Z,17.90
2023-02-11T08:52:58.054Z,22.10
2023-02-11T08:53:57.978Z,20.50
2023-02-11T08:54:58.022Z,18.70
2023-02-11T08:55:58.057Z,19.60
2023-02-11T08:56:57.994Z,19.20
2023-02-11T08:57:57.977Z,20.70
2023-02-11T08:58:57.966Z,18.60
2023-02-11T08:59:58.001Z,20.20
2023-02-11T09:00:57.947Z,21.10
2023-02-11T09:01:57.952Z,20.50
2023-02-11T09:02:57.927Z,22.60
2023-02-11T09:03:57.869Z,19.40
2023-02-11T09:04:57.870Z,20.70
2023-02-11T09:05:57.916Z,21.80
2023-02-11T09:06:57.836Z,25.00
2023-02-11T09:07:57.876Z,23.20
2023-02-11T09:08:57.858Z,21.30
2023-02-11T09:09:57.809Z,22.30
2023-02-11T09:10:57.771Z,24.30
2023-02-11T09:11:57.778Z,23.80
2023-02-11T09:12:57.770Z,22.90
2023-02-11T09:13:57.800Z,19.70
2023-02-11T09:14:57.707Z,21.80
2023-02-11T09:15:57.759Z,21.80
2023-02-11T09:16:57.761Z,22.20
2023-02-11T09:17:57.701Z,21.90
2023-02-11T09:18:57.705Z,21.10
2023-02-11T09:19:57.764Z,22.10
2023-02-11T09:20:57.650Z,23.20
2023-02-11T09:21:57.645Z,21.60
2023-02-11T09:22:57.667Z,18.70
2023-02-11T09:23:57.647Z,18.50
2023-02-11T09:24:57.581Z,17.80
2023-02-11T09:25:57.629Z,18.20
2023-02-11T09:26:57.656Z,15.90
2023-02-11T09:27:57.610Z,16.20
2023-02-11T09:28:57.585Z,15.40
2023-02-11T09:29:57.535Z,15.90
2023-02-11T09:30:57.718Z,18.50
2023-02-11T09:31:57.774Z,19.10
2023-02-11T09:32:57.557Z,17.60
2023-02-11T09:33:57.475Z,18.20
2023-02-11T09:34:57.591Z,19.80
2023-02-11T09:35:57.505Z,16.90
2023-02-11T09:36:57.477Z,17.10
2023-02-11T09:37:57.494Z,16.40
2023-02-11T09:38:57.454Z,15.70
2023-02-11T09:39:57.384Z,17.40
2023-02-11T09:40:57.394Z,18.40
2023-02-11T09:41:57.404Z,17.20
2023-02-11T09:43:01.748Z,15.30
2023-02-11T09:43:58.467Z,15.20
2023-02-11T09:44:57.332Z,13.80
2023-02-11T09:45:57.331Z,15.10
2023-02-11T09:46:57.294Z,15.10
2023-02-11T09:47:57.301Z,15.80
2023-02-11T09:48:57.252Z,15.80
2023-02-11T09:49:57.295Z,14.90
2023-02-11T09:50:57.254Z,18.50
2023-02-11T09:51:57.234Z,16.10
2023-02-11T09:52:57.206Z,16.80
2023-02-11T09:54:00.288Z,16.20
2023-02-11T09:54:57.184Z,14.80
2023-02-11T09:56:20.165Z,15.80
2023-02-11T09:56:58.231Z,16.00
2023-02-11T09:57:57.251Z,17.10
2023-02-11T09:58:57.177Z,18.60
2023-02-11T10:00:27.560Z,18.10
2023-02-11T10:00:57.285Z,16.10
2023-02-11T10:01:57.235Z,16.60
2023-02-11T10:02:57.105Z,19.20
2023-02-11T10:03:57.284Z,19.60
2023-02-11T10:04:57.128Z,17.70
2023-02-11T10:05:57.048Z,19.00
2023-02-11T10:06:57.109Z,17.40
2023-02-11T10:07:57.053Z,17.20
2023-02-11T10:08:57.016Z,23.30
2023-02-11T10:09:56.986Z,19.00
2023-02-11T10:10:56.998Z,21.30
2023-02-11T10:11:56.977Z,19.00
2023-02-11T10:12:56.984Z,20.30
2023-02-11T10:13:57.051Z,18.90
2023-02-11T10:14:56.979Z,19.90
2023-02-11T10:15:56.986Z,22.10
2023-02-11T10:16:56.924Z,23.60
2023-02-11T10:17:56.920Z,22.60
2023-02-11T10:18:56.889Z,24.00
2023-02-11T10:20:03.368Z,24.70
2023-02-11T10:20:56.837Z,25.90
2023-02-11T10:21:56.827Z,26.00
2023-02-11T10:22:56.841Z,26.80
2023-02-11T10:23:56.951Z,23.30
2023-02-11T10:24:56.803Z,25.00
2023-02-11T10:25:56.804Z,21.30
2023-02-11T10:26:56.839Z,23.20
2023-02-11T10:27:56.867Z,23.40
2023-02-11T10:28:56.735Z,26.90
2023-02-11T10:29:56.777Z,22.50
2023-02-11T10:30:56.883Z,22.50
2023-02-11T10:31:58.396Z,23.30
2023-02-11T10:32:56.700Z,24.10
2023-02-11T10:33:56.853Z,24.70
2023-02-11T10:34:56.671Z,25.10
2023-02-11T10:35:56.668Z,26.00
2023-02-11T10:37:09.830Z,22.40
2023-02-11T10:37:57.651Z,23.50
2023-02-11T10:38:56.628Z,23.70
2023-02-11T10:39:56.649Z,20.70
2023-02-11T10:42:05.956Z,22.00
2023-02-11T10:43:05.963Z,22.00
2023-02-11T10:44:06.016Z,19.80
2023-02-11T10:45:10.842Z,18.60
2023-02-11T10:46:06.033Z,17.90
2023-02-11T10:47:05.913Z,18.10
2023-02-11T10:48:05.959Z,16.60
2023-02-11T10:49:06.038Z,20.30
2023-02-11T10:50:06.052Z,20.20
2023-02-11T10:51:05.853Z,13.70
2023-02-11T10:52:05.839Z,18.50
2023-02-11T10:53:05.924Z,11.60
2023-02-11T10:54:05.841Z,14.50
2023-02-11T10:55:05.966Z,13.40
2023-02-11T10:56:05.784Z,17.20
2023-02-11T10:57:05.923Z,15.10
2023-02-11T10:58:05.771Z,17.80
2023-02-11T10:59:05.757Z,12.90
2023-02-11T11:00:05.892Z,13.30
2023-02-11T11:01:18.991Z,10.00
2023-02-11T11:02:06.873Z,14.60
2023-02-11T11:03:12.702Z,15.40
2023-02-11T11:04:06.677Z,12.10
2023-02-11T11:05:05.813Z,11.10
2023-02-11T11:06:05.653Z,13.70
2023-02-11T11:07:05.772Z,16.70
2023-02-11T11:08:05.660Z,16.40
2023-02-11T11:09:05.601Z,14.20
2023-02-11T11:10:05.601Z,14.30
2023-02-11T11:11:05.635Z,15.40
2023-02-11T11:12:05.561Z,14.00
2023-02-11T11:13:05.599Z,13.70
2023-02-11T11:14:05.651Z,16.90
2023-02-11T11:15:05.561Z,15.50
2023-02-11T11:16:05.586Z,13.50
2023-02-11T11:17:05.586Z,15.50
2023-02-11T11:18:20.546Z,17.10
2023-02-11T11:19:06.510Z,17.50
2023-02-11T11:20:05.551Z,14.40
2023-02-11T11:21:05.459Z,11.60
2023-02-11T11:22:05.424Z,14.60
2023-02-11T11:23:40.023Z,11.20
2023-02-11T11:24:05.400Z,13.10
2023-02-11T11:25:05.458Z,13.30
2023-02-11T11:26:05.647Z,13.30
2023-02-11T11:27:05.406Z,14.80
2023-02-11T11:28:05.455Z,17.80
2023-02-11T11:29:05.428Z,14.10
2023-02-11T11:30:05.376Z,15.70
2023-02-11T11:31:05.414Z,11.80
2023-02-11T11:32:05.635Z,16.80
2023-02-11T11:33:05.384Z,11.20
2023-02-11T11:34:05.320Z,14.70
2023-02-11T11:35:05.306Z,11.60
2023-02-11T11:36:05.415Z,13.10
2023-02-11T11:37:05.272Z,15.20
2023-02-11T11:38:05.299Z,17.10
2023-02-11T11:39:05.240Z,18.10
2023-02-11T11:40:05.187Z,13.60
2023-02-11T11:41:05.202Z,14.20
2023-02-11T11:42:05.196Z,13.50
2023-02-11T11:43:05.244Z,17.10
2023-02-11T11:44:05.401Z,17.80
2023-02-11T11:45:05.115Z,18.30
2023-02-11T11:46:05.105Z,15.30
2023-02-11T11:47:05.114Z,17.00
2023-02-11T11:48:05.189Z,17.30
2023-02-11T11:49:05.053Z,15.40
2023-02-11T11:50:05.118Z,18.40
2023-02-11T11:51:05.100Z,14.10
2023-02-11T11:52:05.055Z,17.90
2023-02-11T11:53:05.025Z,19.10
2023-02-11T11:54:05.070Z,16.50
2023-02-11T11:55:05.085Z,19.80
2023-02-11T11:56:05.069Z,16.50
2023-02-11T11:58:14.357Z,18.50
2023-02-11T11:59:29.017Z,19.20
2023-02-11T12:00:14.522Z,19.20
2023-02-11T12:01:47.868Z,20.00
2023-02-11T12:02:15.383Z,19.00
2023-02-11T12:03:14.287Z,19.40
2023-02-11T12:04:14.591Z,13.90
2023-02-11T12:05:14.226Z,19.50
2023-02-11T12:06:14.243Z,12.50
2023-02-11T12:07:14.306Z,19.00
2023-02-11T12:08:14.284Z,20.90
2023-02-11T12:09:14.233Z,22.50
2023-02-11T12:10:14.463Z,21.10
2023-02-11T12:11:14.237Z,20.70
2023-02-11T12:12:14.162Z,22.10
2023-02-11T12:13:40.817Z,18.80
2023-02-11T12:14:15.157Z,17.50
2023-02-11T12:15:14.084Z,18.70
2023-02-11T12:16:14.467Z,22.40
2023-02-11T12:17:14.094Z,18.30
2023-02-11T12:18:19.031Z,17.90
2023-02-11T12:19:14.208Z,20.30
2023-02-11T12:20:14.279Z,18.70
2023-02-11T12:21:14.111Z,20.10
2023-02-11T12:22:14.002Z,23.30
2023-02-11T12:23:14.031Z,20.30
2023-02-11T12:24:16.964Z,18.70
2023-02-11T12:25:13.981Z,17.80
2023-02-11T12:26:13.986Z,22.00
2023-02-11T12:27:14.033Z,20.40
2023-02-11T12:28:13.958Z,25.70
2023-02-11T12:29:13.986Z,22.40
2023-02-11T12:30:13.999Z,16.60
2023-02-11T12:31:14.101Z,18.00
2023-02-11T12:32:14.046Z,18.20
2023-02-11T12:33:13.892Z,21.10
2023-02-11T12:34:13.970Z,21.30
2023-02-11T12:35:13.899Z,18.20
2023-02-11T12:36:13.920Z,16.00
2023-02-11T12:37:13.820Z,18.60
2023-02-11T12:38:13.892Z,19.90
2023-02-11T12:39:13.874Z,20.40
2023-02-11T12:40:13.809Z,21.30
2023-02-11T12:41:13.784Z,20.20
2023-02-11T12:42:13.762Z,17.80
2023-02-11T12:43:13.778Z,25.40
2023-02-11T12:44:13.752Z,20.70
2023-02-11T12:45:13.702Z,19.90
2023-02-11T12:46:13.765Z,21.40
2023-02-11T12:47:13.671Z,20.80
2023-02-11T12:48:13.669Z,18.20
2023-02-11T12:49:13.656Z,19.50
2023-02-11T12:50:13.681Z,21.60
2023-02-11T12:51:13.624Z,21.70
2023-02-11T12:52:13.652Z,20.80
2023-02-11T12:53:13.610Z,17.10
2023-02-11T12:54:13.581Z,19.30